createdAt,value
2019-03-17T15:02:37.554Z,6.60
2019-03-17T15:05:08.205Z,6.30
2019-03-17T15:07:38.654Z,6.20
2019-03-17T15:10:11.310Z,6.20
2019-03-17T15:12:41.824Z,6.20
2019-03-17T15:15:13.001Z,6.10
2019-03-17T15:17:43.375Z,6.00
2019-03-17T15:20:18.321Z,5.90
2019-03-17T15:22:48.881Z,5.80
2019-03-17T15:25:19.421Z,5.70
2019-03-17T15:27:49.605Z,5.70
2019-03-17T15:30:21.874Z,5.60
2019-03-17T15:32:52.014Z,5.50
2019-03-17T15:35:22.140Z,5.40
2019-03-17T15:37:52.914Z,5.30
2019-03-17T15:40:23.363Z,5.30
2019-03-17T15:42:53.509Z,5.20
2019-03-17T15:45:23.531Z,5.00
2019-03-17T15:47:53.965Z,4.90
2019-03-17T15:50:24.352Z,4.90
2019-03-17T15:52:54.622Z,4.90
2019-03-17T15:55:24.962Z,4.80
2019-03-17T15:57:55.751Z,4.80
2019-03-17T16:00:27.051Z,4.80
2019-03-17T16:02:57.718Z,4.80
2019-03-17T16:05:28.484Z,4.80
2019-03-17T16:07:58.204Z,4.70
2019-03-17T16:10:28.407Z,4.70
2019-03-17T16:12:59.245Z,4.70
2019-03-17T16:15:29.366Z,4.70
2019-03-17T16:17:59.487Z,4.70
2019-03-17T16:20:29.491Z,4.60
2019-03-17T16:22:59.230Z,4.60
2019-03-17T16:25:29.600Z,4.60
2019-03-17T16:28:00.075Z,4.70
2019-03-17T16:30:30.174Z,4.70
2019-03-17T16:33:00.537Z,4.60
2019-03-17T16:35:31.223Z,4.60
2019-03-17T16:38:01.662Z,4.60
2019-03-17T16:40:31.786Z,4.60
2019-03-17T16:43:02.534Z,4.60
2019-03-17T16:45:32.179Z,4.60
2019-03-17T16:48:02.697Z,4.60
2019-03-17T16:50:33.383Z,4.60
2019-03-17T16:53:04.144Z,4.60
2019-03-17T16:55:34.608Z,4.60
2019-03-17T16:58:04.848Z,4.60
2019-03-17T17:00:35.539Z,4.60
2019-03-17T17:03:05.992Z,4.50
2019-03-17T17:05:36.335Z,4.50
2019-03-17T17:08:07.104Z,4.50
2019-03-17T17:10:39.004Z,4.50
2019-03-17T17:13:09.785Z,4.50
2019-03-17T17:15:40.303Z,4.40
2019-03-17T17:18:10.691Z,4.40
2019-03-17T17:20:41.473Z,4.40
2019-03-17T17:23:11.307Z,4.30
2019-03-17T17:25:42.124Z,4.30
2019-03-17T17:28:12.567Z,4.30
2019-03-17T17:30:42.975Z,4.30
2019-03-17T17:33:12.994Z,4.30
2019-03-17T17:35:43.335Z,4.30
2019-03-17T17:38:13.356Z,4.40
2019-03-17T17:40:43.903Z,4.40
2019-03-17T17:43:14.388Z,4.40
2019-03-17T17:45:44.415Z,4.40
2019-03-17T17:48:17.131Z,4.40
2019-03-17T17:50:47.332Z,4.40
2019-03-17T17:53:17.819Z,4.40
2019-03-17T17:55:48.179Z,4.40
2019-03-17T17:58:18.528Z,4.40
2019-03-17T18:00:48.955Z,4.40
2019-03-17T18:03:19.463Z,4.30
2019-03-17T18:05:50.274Z,4.30
2019-03-17T18:08:20.567Z,4.30
2019-03-17T18:10:50.615Z,4.20
2019-03-17T18:13:20.793Z,4.20
2019-03-17T18:15:50.891Z,4.20
2019-03-17T18:18:21.481Z,4.20
2019-03-17T18:20:51.504Z,4.20
2019-03-17T18:23:21.890Z,4.20
2019-03-17T18:25:52.254Z,4.20
2019-03-17T18:28:22.388Z,4.30
2019-03-17T18:30:52.489Z,4.30
2019-03-17T18:33:22.820Z,4.30
2019-03-17T18:35:53.203Z,4.30
2019-03-17T18:38:24.104Z,4.20
2019-03-17T18:40:54.517Z,4.20
2019-03-17T18:43:24.959Z,4.20
2019-03-17T18:45:54.991Z,4.20
2019-03-17T18:48:25.338Z,4.20
2019-03-17T18:50:55.903Z,4.20
2019-03-17T18:53:26.295Z,4.20
2019-03-17T18:55:56.006Z,4.20
2019-03-17T18:58:27.721Z,4.20
2019-03-17T19:00:57.399Z,4.30
2019-03-17T19:03:27.143Z,4.20
2019-03-17T19:06:16.182Z,4.10
2019-03-17T19:08:46.600Z,4.10
2019-03-17T19:11:16.627Z,4.10
2019-03-17T19:13:46.677Z,4.10
2019-03-17T19:16:16.756Z,4.00
2019-03-17T19:18:47.070Z,4.00
2019-03-17T19:21:17.121Z,4.00
2019-03-17T19:23:47.521Z,4.00
2019-03-17T19:26:18.256Z,4.00
2019-03-17T19:28:48.632Z,4.00
2019-03-17T19:31:19.440Z,4.00
2019-03-17T19:33:49.093Z,4.00
2019-03-17T19:36:19.507Z,3.90
2019-03-17T19:38:49.775Z,4.00
2019-03-17T19:41:20.177Z,3.90
2019-03-17T19:43:50.170Z,3.90
2019-03-17T19:46:20.960Z,3.90
2019-03-17T19:48:51.380Z,3.90
2019-03-17T19:51:21.385Z,3.90
2019-03-17T19:53:51.766Z,3.90
2019-03-17T19:56:22.249Z,3.90
2019-03-17T19:58:52.696Z,3.90
2019-03-17T20:01:23.017Z,3.90
2019-03-17T20:03:53.492Z,3.90
2019-03-17T20:06:23.581Z,3.90
2019-03-17T20:08:54.384Z,3.90
2019-03-17T20:11:25.875Z,3.90
2019-03-17T20:13:56.699Z,3.90
2019-03-17T20:16:26.803Z,3.90
2019-03-17T20:18:57.674Z,4.00
2019-03-17T20:21:28.172Z,4.00
2019-03-17T20:23:58.190Z,4.00
2019-03-17T20:26:28.534Z,4.10
2019-03-17T20:28:58.920Z,4.10
2019-03-17T20:31:29.353Z,4.10
2019-03-17T20:34:00.192Z,4.00
2019-03-17T20:36:30.934Z,4.00
2019-03-17T20:39:01.090Z,4.00
2019-03-17T20:41:31.239Z,3.90
2019-03-17T20:44:01.536Z,3.90
2019-03-17T20:46:31.726Z,3.90
2019-03-17T20:49:01.972Z,3.90
2019-03-17T20:51:32.481Z,3.90
2019-03-17T20:54:03.020Z,3.80
2019-03-17T20:56:33.422Z,3.80
2019-03-17T20:59:04.195Z,3.80
